Time;durP1;ratioP1;P1;durP2;ratioP2;P2;SDS_P1;SDS_P2;PMS_P1;PMS_P2;Temp;Humidity;BMP_temperature;BMP_pressure;BME280_temperature;BME280_humidity;BME280_pressure;Samples;Min_cycle;Max_cycle;Signal;HPM_P1;HPM_P2
2022/08/30 00:01:21;;;;;;;7.45;2.78;;;;;;;21.40;49.29;101922.31;5047292;28;20522;-60
2022/08/30 00:03:49;;;;;;;6.78;2.72;;;;;;;21.39;49.33;101922.59;5035775;28;20061;-60
2022/08/30 00:06:19;;;;;;;5.55;2.55;;;;;;;21.37;49.53;101913.81;5027223;28;20049;-61
2022/08/30 00:08:49;;;;;;;4.55;2.42;;;;;;;21.36;49.40;101920.38;5027433;28;20077;-61
2022/08/30 00:11:20;;;;;;;8.13;2.70;;;;;;;21.34;50.12;101925.31;5027175;28;20520;-60
2022/08/30 00:13:51;;;;;;;8.98;2.75;;;;;;;21.33;49.65;101924.47;5027544;28;20077;-60
2022/08/30 00:16:21;;;;;;;5.25;3.00;;;;;;;21.31;49.70;101923.91;5038583;28;20511;-61
2022/08/30 00:18:49;;;;;;;8.88;2.47;;;;;;;21.31;49.99;101923.91;5047247;28;20069;-61
2022/08/30 00:21:19;;;;;;;3.65;2.30;;;;;;;21.30;49.78;101930.47;5046741;28;20140;-60
2022/08/30 00:23:46;;;;;;;4.18;2.20;;;;;;;21.29;49.77;101922.53;5044842;28;20484;-61
2022/08/30 00:26:15;;;;;;;5.38;2.85;;;;;;;21.28;49.57;101926.38;5027120;28;20053;-60
2022/08/30 00:28:43;;;;;;;6.85;3.42;;;;;;;21.26;49.99;101929.38;5027249;28;20065;-61
2022/08/30 00:31:11;;;;;;;8.70;2.60;;;;;;;21.25;50.16;101927.72;5026357;28;20053;-60
2022/08/30 00:33:42;;;;;;;7.80;2.20;;;;;;;21.24;50.19;101926.09;5041095;28;20411;-60
2022/08/30 00:36:10;;;;;;;8.27;2.53;;;;;;;21.24;49.96;101936.19;5046314;28;20080;-61
2022/08/30 00:38:37;;;;;;;6.70;2.60;;;;;;;21.24;50.15;101937.00;5046766;28;20076;-61
2022/08/30 00:41:05;;;;;;;5.72;2.22;;;;;;;21.22;50.20;101939.19;5042503;28;20050;-61
2022/08/30 00:43:35;;;;;;;7.05;3.13;;;;;;;21.19;50.33;101934.22;5027023;28;20046;-61
2022/08/30 00:46:06;;;;;;;4.95;2.13;;;;;;;21.21;50.14;101934.78;5026697;28;20068;-60
2022/08/30 00:48:37;;;;;;;6.20;2.70;;;;;;;21.21;50.48;101931.22;5026804;28;20113;-60
2022/08/30 00:51:10;;;;;;;7.18;2.53;;;;;;;21.20;50.27;101929.59;5041105;28;20049;-60
2022/08/30 00:53:42;;;;;;;4.75;2.45;;;;;;;21.19;50.42;101933.41;5046725;28;20050;-60
2022/08/30 00:56:11;;;;;;;6.00;2.30;;;;;;;21.18;50.29;101929.84;5026943;28;20060;-60
2022/08/30 00:58:44;;;;;;;7.88;3.03;;;;;;;21.15;50.51;101922.19;5026582;28;20054;-61
2022/08/30 01:01:13;;;;;;;5.70;2.45;;;;;;;21.15;50.23;101933.13;5030125;28;20060;-60
2022/08/30 01:03:43;;;;;;;4.60;2.17;;;;;;;21.15;50.64;101929.56;5046374;28;20053;-61
2022/08/30 01:06:12;;;;;;;5.93;2.60;;;;;;;21.14;50.45;101936.94;5044833;28;20053;-61
2022/08/30 01:08:40;;;;;;;7.13;2.55;;;;;;;21.15;50.29;101937.75;5046420;28;20059;-61
2022/08/30 01:11:09;;;;;;;4.97;2.50;;;;;;;21.12;50.59;101934.47;5045827;28;20061;-61
2022/08/30 01:13:38;;;;;;;6.03;2.10;;;;;;;21.12;50.60;101941.84;5045206;28;20045;-61
2022/08/30 01:16:07;;;;;;;6.07;2.47;;;;;;;21.09;50.66;101940.47;5046141;28;20085;-61
2022/08/30 01:18:37;;;;;;;3.33;2.30;;;;;;;21.10;50.71;101944.84;5035194;28;20118;-61
2022/08/30 01:21:14;;;;;;;6.78;2.67;;;;;;;21.09;50.59;101942.38;5025812;28;20137;-61
2022/08/30 01:23:45;;;;;;;6.90;2.67;;;;;;;21.08;50.62;101935.25;5026575;28;20072;-61
2022/08/30 01:26:16;;;;;;;4.72;2.45;;;;;;;21.06;50.76;101938.25;5026284;28;20084;-61
2022/08/30 01:28:53;;;;;;;5.20;2.20;;;;;;;21.03;50.71;101933.31;5026541;28;20175;-61
2022/08/30 01:31:21;;;;;;;4.50;2.20;;;;;;;21.05;50.62;101939.34;5026093;28;20092;-61
2022/08/30 01:33:49;;;;;;;6.05;2.45;;;;;;;21.04;50.61;101937.72;5026448;28;20049;-61
2022/08/30 01:36:19;;;;;;;5.65;2.50;;;;;;;21.04;50.81;101939.63;5025633;28;20500;-61
2022/08/30 01:38:51;;;;;;;4.70;2.33;;;;;;;21.03;50.73;101943.44;5026250;28;20508;-61
2022/08/30 01:41:22;;;;;;;4.45;2.22;;;;;;;20.99;50.70;101934.94;5025830;28;20057;-61
2022/08/30 01:43:52;;;;;;;5.32;2.28;;;;;;;20.97;50.95;101937.13;5026156;28;20078;-61
2022/08/30 01:46:23;;;;;;;4.78;2.05;;;;;;;20.95;51.16;101939.28;5025949;28;20088;-61
2022/08/30 01:48:53;;;;;;;4.47;2.20;;;;;;;20.97;51.21;101939.03;5026162;28;20119;-61
2022/08/30 01:51:22;;;;;;;5.28;2.22;;;;;;;20.95;51.01;101931.09;5025685;28;20063;-61
2022/08/30 01:53:52;;;;;;;4.45;2.33;;;;;;;20.93;51.24;101927.81;5033516;28;20076;-61
2022/08/30 01:56:20;;;;;;;5.28;2.35;;;;;;;20.92;51.33;101922.59;5044622;28;20073;-61
2022/08/30 01:58:48;;;;;;;5.18;2.25;;;;;;;20.90;51.20;101931.06;5045702;28;20077;-61
2022/08/30 02:01:19;;;;;;;5.05;2.35;;;;;;;20.89;51.57;101931.34;5045328;28;20045;-61
2022/08/30 02:03:47;;;;;;;5.82;3.40;;;;;;;20.90;51.69;101930.25;5038690;28;20076;-61
2022/08/30 02:06:18;;;;;;;3.83;2.38;;;;;;;20.88;51.53;101932.41;5025499;28;20050;-61
2022/08/30 02:08:47;;;;;;;3.92;2.58;;;;;;;20.86;51.46;101927.22;5025919;28;20073;-61
2022/08/30 02:11:17;;;;;;;4.68;2.30;;;;;;;20.86;51.38;101919.03;5025631;28;20096;-62
2022/08/30 02:13:46;;;;;;;3.17;1.98;;;;;;;20.86;51.50;101927.22;5025960;28;20050;-61
2022/08/30 02:16:16;;;;;;;5.57;2.83;;;;;;;20.85;51.43;101924.75;5044353;28;20053;-61
2022/08/30 02:18:45;;;;;;;5.75;2.90;;;;;;;20.83;51.37;101922.28;5045720;28;20084;-61
2022/08/30 02:21:13;;;;;;;4.93;2.20;;;;;;;20.82;51.49;101926.09;5026031;28;20050;-61
2022/08/30 02:23:41;;;;;;;4.40;2.47;;;;;;;20.79;51.60;101922.03;5029046;28;20045;-61
2022/08/30 02:26:09;;;;;;;5.13;2.17;;;;;;;20.79;51.52;101918.47;5045476;28;20045;-61
2022/08/30 02:28:39;;;;;;;8.68;2.40;;;;;;;20.77;51.95;101920.63;5044740;28;20060;-62
2022/08/30 02:31:17;;;;;;;6.55;2.33;;;;;;;20.76;51.75;101921.72;5025380;28;20132;-61
2022/08/30 02:33:49;;;;;;;7.00;2.20;;;;;;;20.75;51.93;101920.06;5025644;28;20110;-61
2022/08/30 02:36:17;;;;;;;6.55;2.08;;;;;;;20.72;51.88;101918.69;5025459;28;20075;-61
2022/08/30 02:38:45;;;;;;;4.88;2.58;;;;;;;20.71;52.44;101918.97;5025530;28;20073;-61
2022/08/30 02:41:13;;;;;;;6.30;2.25;;;;;;;20.71;52.25;101927.97;5045039;28;20076;-61
2022/08/30 02:43:42;;;;;;;3.13;2.00;;;;;;;20.72;52.00;101931.53;5045378;28;20073;-61
2022/08/30 02:46:10;;;;;;;5.97;2.22;;;;;;;20.71;52.09;101918.97;5038495;28;20049;-61
2022/08/30 02:48:38;;;;;;;8.32;2.17;;;;;;;20.71;52.08;101916.22;5025401;28;20061;-61
2022/08/30 02:51:08;;;;;;;4.40;2.38;;;;;;;20.69;52.02;101912.94;5041686;28;20415;-61
2022/08/30 02:53:38;;;;;;;5.53;2.80;;;;;;;20.68;52.13;101914.84;5037103;28;20057;-61
2022/08/30 02:56:07;;;;;;;7.95;2.45;;;;;;;20.65;52.35;101907.19;5027828;28;20045;-61
2022/08/30 02:58:35;;;;;;;5.10;2.40;;;;;;;20.64;52.45;101916.47;5029032;28;20049;-61
2022/08/30 03:01:05;;;;;;;6.30;2.45;;;;;;;20.64;52.42;101911.00;5028746;28;20085;-61
2022/08/30 03:03:33;;;;;;;5.50;2.40;;;;;;;20.63;52.33;101903.88;5037721;28;20081;-61
2022/08/30 03:06:02;;;;;;;3.53;2.22;;;;;;;20.63;52.19;101908.53;5048121;28;20580;-61
2022/08/30 03:08:30;;;;;;;5.65;2.47;;;;;;;20.63;52.26;101906.63;5048738;28;20053;-61
2022/08/30 03:10:59;;;;;;;4.90;2.40;;;;;;;20.62;52.35;101907.69;5029847;28;20174;-61
2022/08/30 03:13:26;;;;;;;4.20;2.63;;;;;;;20.62;52.38;101909.59;5028712;28;20080;-61
2022/08/30 03:15:54;;;;;;;5.22;2.40;;;;;;;20.61;52.32;101905.22;5028512;28;20078;-61
2022/08/30 03:18:25;;;;;;;5.03;2.47;;;;;;;20.60;52.33;101900.84;5028666;28;20098;-61
2022/08/30 03:20:53;;;;;;;6.20;2.30;;;;;;;20.58;52.63;101911.22;5028046;28;20053;-61
2022/08/30 03:23:22;;;;;;;4.45;2.83;;;;;;;20.58;52.32;101913.94;5028430;28;20049;-61
2022/08/30 03:25:50;;;;;;;9.73;2.65;;;;;;;20.56;52.51;101900.56;5028410;28;20073;-61
2022/08/30 03:28:18;;;;;;;4.43;2.53;;;;;;;20.56;52.56;101911.47;5028624;28;20054;-61
2022/08/30 03:30:46;;;;;;;6.47;2.47;;;;;;;20.55;52.40;101906.28;5028150;28;20161;-61
2022/08/30 03:33:15;;;;;;;6.82;2.40;;;;;;;20.55;52.59;101906.28;5028454;28;20046;-61
2022/08/30 03:35:46;;;;;;;3.22;2.30;;;;;;;20.53;52.70;101909.28;5027906;28;20046;-61
2022/08/30 03:38:14;;;;;;;4.88;2.25;;;;;;;20.52;52.58;101907.63;5028194;28;20054;-61
2022/08/30 03:40:42;;;;;;;4.53;2.58;;;;;;;20.51;52.55;101914.19;5028218;28;20050;-61
2022/08/30 03:43:11;;;;;;;3.35;2.17;;;;;;;20.50;52.48;101909.81;5028061;28;20447;-61
2022/08/30 03:45:39;;;;;;;4.82;2.35;;;;;;;20.50;52.73;101906.25;5027969;28;20134;-61
2022/08/30 03:48:07;;;;;;;5.32;2.60;;;;;;;20.48;52.70;101903.78;5027873;28;20070;-61
2022/08/30 03:50:35;;;;;;;5.80;2.33;;;;;;;20.47;52.80;101904.88;5027816;28;20088;-61
2022/08/30 03:53:04;;;;;;;7.18;2.42;;;;;;;20.46;52.54;101900.50;5028088;28;20065;-60
2022/08/30 03:55:32;;;;;;;3.83;2.50;;;;;;;20.45;52.68;101899.66;5027561;28;20427;-61
2022/08/30 03:58:00;;;;;;;4.45;2.28;;;;;;;20.44;52.54;101905.38;5035615;28;20540;-61
2022/08/30 04:00:29;;;;;;;3.95;2.13;;;;;;;20.43;52.45;101907.28;5047371;28;20064;-61
2022/08/30 04:02:56;;;;;;;5.60;2.42;;;;;;;20.43;52.70;101909.19;5031556;28;20054;-61
2022/08/30 04:05:24;;;;;;;4.03;2.08;;;;;;;20.41;52.83;101905.91;5027631;28;20073;-61
2022/08/30 04:07:52;;;;;;;5.35;2.40;;;;;;;20.41;53.05;101905.91;5026504;28;20077;-60
2022/08/30 04:10:21;;;;;;;4.40;2.20;;;;;;;20.36;52.68;101903.09;5027227;28;20060;-61
2022/08/30 04:12:50;;;;;;;5.30;2.35;;;;;;;20.37;53.15;101907.47;5027834;28;20050;-61
2022/08/30 04:15:19;;;;;;;6.97;2.22;;;;;;;20.37;52.93;101904.75;5027416;28;20052;-61
2022/08/30 04:17:48;;;;;;;4.95;2.22;;;;;;;20.36;52.78;101903.94;5027049;28;20503;-61
2022/08/30 04:20:16;;;;;;;4.43;2.40;;;;;;;20.34;52.95;101903.38;5027318;28;20109;-61
2022/08/30 04:22:44;;;;;;;5.20;2.28;;;;;;;20.33;52.94;101907.19;5027040;28;20061;-61
2022/08/30 04:25:12;;;;;;;3.78;2.20;;;;;;;20.32;52.89;101908.28;5042677;28;20076;-61
2022/08/30 04:27:44;;;;;;;5.63;2.20;;;;;;;20.26;52.79;101901.13;5046327;28;20491;-62
2022/08/30 04:30:13;;;;;;;2.40;1.90;;;;;;;20.29;52.90;101913.44;5027385;28;20074;-61
2022/08/30 04:32:40;;;;;;;4.32;2.08;;;;;;;20.28;53.19;101911.78;5027078;28;20088;-61
2022/08/30 04:35:09;;;;;;;2.95;2.28;;;;;;;20.27;53.29;101910.13;5029272;28;20069;-61
2022/08/30 04:37:37;;;;;;;3.70;2.25;;;;;;;20.26;53.21;101922.13;5046520;28;20046;-61
2022/08/30 04:40:06;;;;;;;3.92;2.30;;;;;;;20.24;53.13;101922.41;5046357;28;20079;-61
2022/08/30 04:42:35;;;;;;;3.70;2.45;;;;;;;20.24;53.17;101919.66;5044595;28;20117;-61
2022/08/30 04:45:08;;;;;;;4.82;2.60;;;;;;;20.24;53.25;101927.03;5045646;28;20045;-61
2022/08/30 04:47:37;;;;;;;5.25;2.60;;;;;;;20.23;53.36;101928.94;5046554;28;20057;-61
2022/08/30 04:50:07;;;;;;;6.15;2.85;;;;;;;20.22;53.56;101921.84;5026889;28;20050;-61
2022/08/30 04:52:35;;;;;;;4.18;2.25;;;;;;;20.22;53.33;101926.47;5026169;28;20064;-61
2022/08/30 04:55:06;;;;;;;4.18;2.15;;;;;;;20.14;53.30;101914.94;5025902;28;20069;-61
2022/08/30 04:57:33;;;;;;;6.78;2.33;;;;;;;20.20;53.29;101929.47;5026925;28;20058;-61
2022/08/30 05:00:01;;;;;;;5.65;2.45;;;;;;;20.20;53.31;101925.91;5026542;28;20077;-61
2022/08/30 05:02:30;;;;;;;3.55;2.47;;;;;;;20.19;53.26;101932.44;5040460;28;20124;-60
2022/08/30 05:07:43;;;;;;;3.28;2.22;;;;;;;20.15;53.46;101932.16;5026137;28;20077;-61
2022/08/30 05:10:11;;;;;;;3.90;2.03;;;;;;;20.16;53.48;101933.78;5026112;28;20068;-60
2022/08/30 05:12:39;;;;;;;3.40;2.17;;;;;;;20.14;53.42;101928.59;5026658;28;20049;-60
2022/08/30 05:15:08;;;;;;;3.72;2.67;;;;;;;20.13;53.48;101935.13;5026458;28;20081;-61
2022/08/30 05:17:39;;;;;;;5.93;2.78;;;;;;;20.13;53.51;101940.59;5025631;28;20081;-61
2022/08/30 05:20:09;;;;;;;4.18;2.30;;;;;;;20.11;53.42;101940.03;5026638;28;20077;-61
2022/08/30 05:22:38;;;;;;;3.50;2.25;;;;;;;20.11;53.60;101942.75;5025867;28;20046;-61
2022/08/30 05:25:07;;;;;;;3.05;2.30;;;;;;;20.06;53.34;101933.69;5026437;28;20092;-61
2022/08/30 05:27:35;;;;;;;6.07;2.83;;;;;;;20.09;53.63;101946.81;5026392;28;20053;-61
2022/08/30 05:30:05;;;;;;;4.63;2.45;;;;;;;20.08;53.68;101943.28;5026282;28;20081;-61
2022/08/30 05:32:32;;;;;;;5.63;2.45;;;;;;;20.07;53.70;101941.63;5026187;28;20053;-61
2022/08/30 05:35:05;;;;;;;4.05;2.35;;;;;;;20.03;53.60;101940.50;5026126;28;20419;-60
2022/08/30 05:37:33;;;;;;;5.53;3.00;;;;;;;20.05;53.76;101940.25;5026066;28;20057;-61
2022/08/30 05:40:01;;;;;;;4.85;2.60;;;;;;;20.03;53.63;101947.88;5026207;28;20049;-61
2022/08/30 05:42:29;;;;;;;3.63;2.20;;;;;;;20.03;53.74;101954.16;5025803;28;20072;-61
2022/08/30 05:44:57;;;;;;;3.92;2.35;;;;;;;20.00;53.70;101957.38;5025887;28;20073;-60
2022/08/30 05:47:24;;;;;;;4.68;2.38;;;;;;;19.99;53.64;101950.28;5026027;28;20089;-61
2022/08/30 05:49:52;;;;;;;5.72;2.65;;;;;;;19.99;54.10;101961.19;5025911;28;20078;-61
2022/08/30 05:52:21;;;;;;;3.50;2.17;;;;;;;19.98;54.05;101950.53;5031554;28;20564;-60
2022/08/30 05:54:53;;;;;;;6.63;2.45;;;;;;;19.97;53.95;101954.34;5045793;28;20081;-61
2022/08/30 05:57:21;;;;;;;4.50;2.20;;;;;;;19.96;54.02;101948.06;5045777;28;20085;-61
2022/08/30 05:59:49;;;;;;;6.35;2.63;;;;;;;19.95;54.08;101942.88;5031603;28;20081;-61
2022/08/30 06:02:17;;;;;;;4.65;2.42;;;;;;;19.95;53.96;101949.16;5025643;28;20050;-60
2022/08/30 06:04:45;;;;;;;3.22;2.17;;;;;;;19.95;54.04;101951.06;5025818;28;20073;-61
2022/08/30 06:07:12;;;;;;;6.70;3.08;;;;;;;19.96;54.02;101948.06;5025626;28;20057;-61
2022/08/30 06:09:45;;;;;;;4.25;2.40;;;;;;;19.97;54.01;101955.19;5026219;28;20092;-61
2022/08/30 06:12:12;;;;;;;5.90;2.78;;;;;;;20.00;54.00;101962.03;5025510;28;20093;-61
2022/08/30 06:14:40;;;;;;;4.25;2.65;;;;;;;20.01;53.90;101960.94;5026097;28;20042;-61
2022/08/30 06:17:08;;;;;;;4.25;2.53;;;;;;;20.01;53.97;101961.75;5025538;28;20157;-61
2022/08/30 06:19:36;;;;;;;4.82;2.50;;;;;;;20.02;54.10;101957.13;5026041;28;20049;-61
2022/08/30 06:22:04;;;;;;;4.95;2.47;;;;;;;20.04;53.97;101955.78;5025049;28;20076;-60
2022/08/30 06:24:31;;;;;;;4.05;2.92;;;;;;;20.06;54.00;101961.00;5025886;28;20049;-60
2022/08/30 06:27:20;;;;;;;3.63;2.15;;;;;;;20.07;54.08;101958.00;5025573;28;20140;-61
2022/08/30 06:29:51;;;;;;;3.55;2.10;;;;;;;20.09;53.97;101960.47;5026180;28;20415;-61
2022/08/30 06:32:19;;;;;;;3.40;2.40;;;;;;;20.07;53.88;101955.28;5034659;28;20049;-61
2022/08/30 06:34:47;;;;;;;3.45;2.25;;;;;;;20.10;54.06;101959.41;5049297;28;20045;-61
2022/08/30 06:37:15;;;;;;;5.10;2.30;;;;;;;20.12;53.93;101962.69;5047622;28;20049;-60
2022/08/30 06:39:57;;;;;;;4.63;2.67;;;;;;;20.13;53.83;101965.16;5049261;28;20076;-61
2022/08/30 06:42:30;;;;;;;4.13;2.38;;;;;;;20.14;53.64;101953.16;5048848;28;20050;-61
2022/08/30 06:44:59;;;;;;;2.75;1.98;;;;;;;20.14;53.86;101952.34;5031463;28;20137;-61
2022/08/30 06:47:28;;;;;;;4.50;2.38;;;;;;;20.17;54.05;101951.00;5028902;28;20049;-60
2022/08/30 06:49:56;;;;;;;4.65;2.08;;;;;;;20.17;53.93;101949.09;5030943;28;20058;-60
2022/08/30 06:52:23;;;;;;;4.05;2.40;;;;;;;20.18;54.05;101950.72;5048402;28;20057;-61
2022/08/30 06:54:53;;;;;;;5.35;2.70;;;;;;;20.20;54.01;101951.31;5048755;28;20113;-60
2022/08/30 06:57:20;;;;;;;5.47;2.20;;;;;;;20.20;53.80;101953.22;5048699;28;20073;-61
2022/08/30 06:59:49;;;;;;;6.22;2.33;;;;;;;20.21;53.79;101955.69;5029985;28;20054;-61
2022/08/30 07:02:23;;;;;;;4.97;2.30;;;;;;;20.21;54.00;101952.13;5028593;28;20050;-61
2022/08/30 07:04:52;;;;;;;2.85;1.83;;;;;;;20.21;53.97;101955.69;5028744;28;20070;-61
2022/08/30 07:07:20;;;;;;;5.40;2.50;;;;;;;20.22;53.83;101954.59;5028437;28;20412;-61
2022/08/30 07:09:47;;;;;;;3.88;2.17;;;;;;;20.23;53.74;101958.16;5028771;28;20073;-61
2022/08/30 07:12:15;;;;;;;2.72;1.90;;;;;;;20.22;53.80;101956.50;5028216;28;20089;-61
2022/08/30 07:14:43;;;;;;;4.15;2.33;;;;;;;20.20;53.92;101951.31;5028765;28;20081;-60
2022/08/30 07:20:01;;;;;;;5.25;2.38;;;;;;;20.20;53.88;101953.22;5028510;28;20046;-61
2022/08/30 07:22:29;;;;;;;4.00;2.25;;;;;;;20.20;53.70;101964.13;5028217;28;20061;-61
2022/08/30 07:24:57;;;;;;;4.05;2.30;;;;;;;20.18;54.01;101964.38;5028387;28;20082;-60
2022/08/30 07:27:25;;;;;;;3.78;2.25;;;;;;;20.19;53.81;101967.94;5028286;28;20088;-60
2022/08/30 07:29:53;;;;;;;4.03;2.38;;;;;;;20.17;53.99;101970.94;5028356;28;20060;-61
2022/08/30 07:32:22;;;;;;;3.15;2.42;;;;;;;20.18;54.00;101967.13;5028024;28;20078;-60
2022/08/30 07:34:50;;;;;;;5.20;2.40;;;;;;;20.17;54.16;101962.75;5028170;28;20081;-60
2022/08/30 07:37:18;;;;;;;9.10;2.80;;;;;;;20.17;53.95;101961.91;5027798;28;20050;-60
2022/08/30 07:39:46;;;;;;;6.57;3.10;;;;;;;20.16;53.97;101966.53;5028349;28;20483;-60
2022/08/30 07:42:15;;;;;;;4.55;2.30;;;;;;;20.15;54.06;101971.19;5027437;28;20145;-60
2022/08/30 07:44:42;;;;;;;4.15;2.38;;;;;;;20.16;54.04;101966.53;5028199;28;20053;-60
2022/08/30 07:47:10;;;;;;;5.63;2.33;;;;;;;20.15;53.95;101970.34;5028241;28;20074;-61
2022/08/30 07:49:39;;;;;;;4.10;2.63;;;;;;;20.17;54.15;101964.66;5028012;28;20073;-60
2022/08/30 07:52:07;;;;;;;5.55;2.70;;;;;;;20.14;54.19;101966.81;5040482;28;20085;-60
2022/08/30 07:54:35;;;;;;;4.45;2.50;;;;;;;20.15;54.39;101975.81;5041204;28;20084;-60
2022/08/30 07:57:03;;;;;;;4.38;2.47;;;;;;;20.14;54.39;101977.72;5027832;28;20050;-60
2022/08/30 07:59:30;;;;;;;5.00;2.42;;;;;;;20.14;54.46;101982.34;5028028;28;20085;-60
2022/08/30 08:02:02;;;;;;;3.75;2.25;;;;;;;20.14;54.42;101977.72;5027456;28;20050;-60
2022/08/30 08:04:31;;;;;;;3.53;1.98;;;;;;;20.15;54.36;101970.34;5027728;28;20081;-60
2022/08/30 08:07:01;;;;;;;5.25;2.30;;;;;;;20.14;54.50;101975.00;5032323;28;20116;-60
2022/08/30 08:09:28;;;;;;;4.47;2.08;;;;;;;20.14;54.52;101972.25;5040952;28;20046;-60
2022/08/30 08:11:56;;;;;;;4.40;2.38;;;;;;;20.15;54.62;101975.81;5027181;28;20522;-62
2022/08/30 08:14:24;;;;;;;2.55;1.92;;;;;;;20.15;54.66;101982.09;5027459;28;20053;-60
2022/08/30 08:16:52;;;;;;;3.20;2.10;;;;;;;20.15;54.55;101984.84;5027119;28;20046;-60
2022/08/30 08:19:19;;;;;;;4.75;2.72;;;;;;;20.15;54.72;101979.38;5027733;28;20092;-60
2022/08/30 08:21:47;;;;;;;6.63;2.83;;;;;;;20.14;54.99;101969.53;5026848;28;20077;-60
2022/08/30 08:24:36;;;;;;;4.53;2.55;;;;;;;20.18;54.88;101985.41;5045863;28;20059;-60
2022/08/30 08:27:04;;;;;;;3.40;2.22;;;;;;;20.19;54.64;101984.31;5046843;28;20483;-60
2022/08/30 08:29:32;;;;;;;5.85;2.33;;;;;;;20.18;54.83;101979.94;5045926;28;20045;-60
2022/08/30 08:32:00;;;;;;;6.97;2.75;;;;;;;20.20;54.76;101986.78;5046657;28;20073;-60
2022/08/30 08:34:28;;;;;;;3.75;2.20;;;;;;;20.21;54.64;101984.88;5046983;28;20083;-60
2022/08/30 08:36:55;;;;;;;4.78;2.55;;;;;;;20.21;54.94;101987.63;5041784;28;20096;-60
2022/08/30 08:39:23;;;;;;;6.35;3.47;;;;;;;20.22;55.04;101995.53;5027167;28;20045;-60
2022/08/30 08:42:02;;;;;;;4.25;2.47;;;;;;;20.23;55.12;101996.38;5031612;28;20076;-60
2022/08/30 08:44:45;;;;;;;3.85;2.15;;;;;;;20.22;55.10;101986.53;5046802;28;20056;-60
2022/08/30 08:47:17;;;;;;;4.03;2.47;;;;;;;20.23;55.20;101989.00;5046131;28;20483;-60
2022/08/30 08:49:49;;;;;;;4.00;2.30;;;;;;;20.24;55.29;101989.81;5039172;28;20439;-60
2022/08/30 08:55:12;;;;;;;11.63;2.67;;;;;;;20.25;55.20;101986.84;5026834;28;20108;-61
2022/08/30 08:57:42;;;;;;;3.58;2.28;;;;;;;20.27;55.24;101992.03;5028585;28;20054;-60
2022/08/30 09:00:12;;;;;;;4.18;2.78;;;;;;;20.28;55.32;101980.03;5046509;28;20083;-60
2022/08/30 09:02:43;;;;;;;6.20;2.92;;;;;;;20.28;55.37;101982.75;5045189;28;20072;-60
2022/08/30 09:05:14;;;;;;;2.85;1.83;;;;;;;20.29;55.36;101981.69;5046553;28;20056;-60
2022/08/30 09:07:46;;;;;;;5.10;2.20;;;;;;;20.30;55.19;101983.34;5044882;28;20140;-60
2022/08/30 09:10:14;;;;;;;6.70;2.10;;;;;;;20.32;55.37;102003.00;5046049;28;20060;-60
2022/08/30 09:12:50;;;;;;;5.50;2.33;;;;;;;20.34;55.35;101992.66;5039233;28;20104;-60
2022/08/30 09:15:28;;;;;;;7.30;2.42;;;;;;;20.34;55.15;101988.00;5026597;28;20049;-60
2022/08/30 09:18:00;;;;;;;3.80;2.03;;;;;;;20.35;55.29;101989.66;5026203;28;20042;-60
2022/08/30 09:20:32;;;;;;;7.28;2.10;;;;;;;20.37;55.26;101989.41;5026590;28;20056;-60
2022/08/30 09:23:20;;;;;;;4.63;1.77;;;;;;;20.39;55.18;101990.00;5025888;28;20050;-60
2022/08/30 09:25:51;;;;;;;6.78;2.65;;;;;;;20.41;55.27;101996.03;5026315;28;20049;-60
2022/08/30 09:28:24;;;;;;;4.35;1.98;;;;;;;20.41;55.37;101993.28;5026425;28;20058;-60
2022/08/30 09:31:01;;;;;;;4.22;2.17;;;;;;;20.42;55.31;101990.31;5026087;28;20054;-60
2022/08/30 09:33:28;;;;;;;4.30;2.08;;;;;;;20.41;55.33;101983.19;5026321;28;20462;-60
2022/08/30 09:35:57;;;;;;;4.32;2.03;;;;;;;20.43;55.34;101980.19;5043877;28;20057;-60
2022/08/30 09:38:31;;;;;;;10.93;2.20;;;;;;;20.44;55.28;101977.22;5045787;28;20056;-60
2022/08/30 09:41:02;;;;;;;6.30;2.20;;;;;;;20.46;55.10;101977.78;5033006;28;20058;-61
2022/08/30 09:43:32;;;;;;;4.95;2.13;;;;;;;20.48;55.12;101979.44;5026164;28;20077;-61
2022/08/30 09:46:12;;;;;;;4.72;2.90;;;;;;;20.49;55.13;101981.91;5025997;28;20049;-61
2022/08/30 09:48:44;;;;;;;3.10;1.83;;;;;;;20.52;55.21;101986.00;5026028;28;20054;-60
2022/08/30 09:51:27;;;;;;;2.42;1.50;;;;;;;20.52;55.16;101978.63;5025617;28;20080;-60
2022/08/30 09:54:06;;;;;;;4.10;1.90;;;;;;;20.56;55.02;101984.41;5026204;28;20049;-60
2022/08/30 09:57:00;;;;;;;4.10;1.67;;;;;;;20.57;55.14;101981.41;5026184;28;20050;-60
2022/08/30 09:59:48;;;;;;;2.78;1.52;;;;;;;20.62;54.94;101986.91;5026014;28;20054;-61
2022/08/30 10:02:52;;;;;;;4.25;1.70;;;;;;;20.63;54.76;101977.63;5025690;28;20082;-60
2022/08/30 10:05:27;;;;;;;4.93;1.92;;;;;;;20.65;54.71;101975.47;5029560;28;20049;-60
2022/08/30 10:08:05;;;;;;;2.85;2.03;;;;;;;20.66;54.55;101982.59;5029408;28;20076;-60
2022/08/30 10:10:40;;;;;;;2.88;1.70;;;;;;;20.68;54.34;101979.59;5029728;28;20046;-60
2022/08/30 10:13:31;;;;;;;3.35;1.88;;;;;;;20.69;54.28;101979.31;5030056;28;20072;-60
2022/08/30 10:16:10;;;;;;;3.15;1.65;;;;;;;20.72;54.46;101976.06;5029696;28;20405;-60
2022/08/30 10:18:43;;;;;;;4.45;1.65;;;;;;;20.75;54.32;101972.00;5029675;28;20057;-60
2022/08/30 10:21:18;;;;;;;5.20;1.80;;;;;;;20.77;54.46;101967.09;5029406;28;20429;-60
2022/08/30 10:23:50;;;;;;;2.88;1.70;;;;;;;20.82;54.42;101975.28;5029690;28;20408;-60
2022/08/30 10:26:27;;;;;;;3.15;1.40;;;;;;;20.86;54.50;101973.69;5029413;28;20057;-60
2022/08/30 10:29:01;;;;;;;3.40;1.20;;;;;;;20.90;54.41;101971.25;5029565;28;20130;-61
2022/08/30 10:31:37;;;;;;;4.97;1.50;;;;;;;20.92;53.86;101972.63;5029187;28;20073;-61
2022/08/30 10:34:09;;;;;;;4.25;1.45;;;;;;;20.94;54.03;101977.81;5029833;28;20182;-60
2022/08/30 10:36:42;;;;;;;3.83;2.28;;;;;;;20.97;54.10;101967.19;5029065;28;20054;-60
2022/08/30 10:39:21;;;;;;;2.83;1.10;;;;;;;21.00;54.06;101961.19;5029439;28;20050;-61
2022/08/30 10:41:52;;;;;;;2.28;1.33;;;;;;;21.02;54.20;101964.47;5029174;28;20050;-60
2022/08/30 10:44:24;;;;;;;2.42;1.52;;;;;;;21.08;53.84;101970.81;5029330;28;20086;-60
2022/08/30 10:47:04;;;;;;;3.80;1.45;;;;;;;21.09;53.59;101964.25;5028821;28;20054;-61
2022/08/30 10:49:37;;;;;;;4.63;1.75;;;;;;;21.12;53.66;101967.28;5029408;28;20050;-60
2022/08/30 10:52:22;;;;;;;3.97;1.30;;;;;;;21.17;53.57;101966.47;5028518;28;20508;-60
2022/08/30 10:54:57;;;;;;;6.60;1.50;;;;;;;21.19;53.45;101969.78;5028827;28;20061;-60
2022/08/30 10:57:25;;;;;;;2.05;1.38;;;;;;;21.21;53.35;101958.56;5041024;28;20045;-60
2022/08/30 10:59:57;;;;;;;3.65;1.73;;;;;;;21.25;53.53;101970.66;5048808;28;20049;-60
2022/08/30 11:02:51;;;;;;;4.53;1.42;;;;;;;21.29;53.80;101961.66;5036827;28;20050;-60
2022/08/30 11:05:42;;;;;;;3.67;1.27;;;;;;;21.34;53.30;101967.16;5028762;28;20073;-60
2022/08/30 11:08:23;;;;;;;1.10;1.00;;;;;;;21.37;53.39;101961.13;5028592;28;20523;-61
2022/08/30 11:10:59;;;;;;;5.13;1.88;;;;;;;21.40;53.16;101965.25;5028500;28;20480;-61
2022/08/30 11:13:30;;;;;;;3.10;1.48;;;;;;;21.42;52.73;101965.81;5028721;28;20541;-61
2022/08/30 11:16:02;;;;;;;2.15;1.30;;;;;;;21.45;52.60;101962.53;5027934;28;20049;-61
2022/08/30 11:18:34;;;;;;;5.47;1.40;;;;;;;21.47;52.71;101957.63;5028429;28;20077;-61
2022/08/30 11:21:19;;;;;;;2.70;1.20;;;;;;;21.50;52.69;101950.78;5039935;28;20108;-60
2022/08/30 11:24:08;;;;;;;4.30;1.42;;;;;;;21.51;52.27;101952.44;5047610;28;20053;-61
2022/08/30 11:26:58;;;;;;;5.07;1.52;;;;;;;21.56;52.12;101963.41;5029997;28;20053;-60
2022/08/30 11:29:36;;;;;;;2.03;1.25;;;;;;;21.57;52.06;101957.66;5028686;28;20050;-60
2022/08/30 11:32:21;;;;;;;2.03;1.40;;;;;;;21.59;51.44;101958.22;5028298;28;20045;-60
2022/08/30 11:34:58;;;;;;;2.38;1.35;;;;;;;21.60;51.93;101957.13;5028175;28;20100;-60
2022/08/30 11:37:39;;;;;;;5.10;1.50;;;;;;;21.62;51.45;101952.22;5027905;28;20116;-61
2022/08/30 11:40:09;;;;;;;2.95;1.50;;;;;;;21.57;51.45;101934.97;5028126;28;20053;-61
2022/08/30 11:42:45;;;;;;;2.70;1.30;;;;;;;21.67;51.60;101957.69;5027808;28;20049;-60
2022/08/30 11:45:47;;;;;;;1.70;1.20;;;;;;;21.71;51.63;101947.84;5027876;28;20109;-60
2022/08/30 11:48:40;;;;;;;6.78;1.83;;;;;;;21.74;51.33;101941.84;5047120;28;20041;-60
2022/08/30 11:51:56;;;;;;;4.30;1.42;;;;;;;21.79;50.82;101941.03;5047461;28;20057;-61